sensor_id;sensor_type;location;lat;lon;timestamp;P1;durP1;ratioP1;P2;durP2;ratioP2
4547;SDS011;2286;51.570;7.090;2022-10-12T00:01:14;9.03;;;7.60;;
4547;SDS011;2286;51.570;7.090;2022-10-12T00:03:41;12.17;;;7.90;;
4547;SDS011;2286;51.570;7.090;2022-10-12T00:06:09;13.10;;;6.97;;
4547;SDS011;2286;51.570;7.090;2022-10-12T00:08:38;13.50;;;7.80;;
4547;SDS011;2286;51.570;7.090;2022-10-12T00:11:06;13.17;;;9.33;;
4547;SDS011;2286;51.570;7.090;2022-10-12T00:13:37;8.83;;;6.80;;
4547;SDS011;2286;51.570;7.090;2022-10-12T00:16:05;12.20;;;8.17;;
4547;SDS011;2286;51.570;7.090;2022-10-12T00:18:33;18.40;;;8.80;;
4547;SDS011;2286;51.570;7.090;2022-10-12T00:21:01;12.50;;;9.27;;
4547;SDS011;2286;51.570;7.090;2022-10-12T00:23:28;14.50;;;7.90;;
4547;SDS011;2286;51.570;7.090;2022-10-12T00:25:59;12.67;;;7.70;;
4547;SDS011;2286;51.570;7.090;2022-10-12T00:28:27;13.17;;;7.63;;
4547;SDS011;2286;51.570;7.090;2022-10-12T00:30:56;13.87;;;7.90;;
4547;SDS011;2286;51.570;7.090;2022-10-12T00:33:23;15.03;;;8.37;;
4547;SDS011;2286;51.570;7.090;2022-10-12T00:35:50;10.87;;;7.33;;
4547;SDS011;2286;51.570;7.090;2022-10-12T00:38:19;13.00;;;8.37;;
4547;SDS011;2286;51.570;7.090;2022-10-12T00:40:46;14.90;;;8.10;;
4547;SDS011;2286;51.570;7.090;2022-10-12T00:43:26;20.13;;;8.20;;
4547;SDS011;2286;51.570;7.090;2022-10-12T00:45:56;17.23;;;9.80;;
4547;SDS011;2286;51.570;7.090;2022-10-12T00:48:24;14.20;;;8.20;;
4547;SDS011;2286;51.570;7.090;2022-10-12T00:50:52;13.73;;;7.73;;
4547;SDS011;2286;51.570;7.090;2022-10-12T00:53:20;13.60;;;8.97;;
4547;SDS011;2286;51.570;7.090;2022-10-12T00:55:50;13.27;;;9.03;;
4547;SDS011;2286;51.570;7.090;2022-10-12T00:58:21;14.33;;;9.40;;
4547;SDS011;2286;51.570;7.090;2022-10-12T01:00:48;14.10;;;8.97;;
4547;SDS011;2286;51.570;7.090;2022-10-12T01:03:18;15.93;;;9.17;;
4547;SDS011;2286;51.570;7.090;2022-10-12T01:05:47;13.20;;;9.70;;
4547;SDS011;2286;51.570;7.090;2022-10-12T01:08:14;16.23;;;9.27;;
4547;SDS011;2286;51.570;7.090;2022-10-12T01:10:41;12.23;;;9.60;;
4547;SDS011;2286;51.570;7.090;2022-10-12T01:13:08;14.60;;;9.07;;
4547;SDS011;2286;51.570;7.090;2022-10-12T01:15:38;17.50;;;10.17;;
4547;SDS011;2286;51.570;7.090;2022-10-12T01:18:09;13.77;;;8.77;;
4547;SDS011;2286;51.570;7.090;2022-10-12T01:20:46;13.40;;;8.90;;
4547;SDS011;2286;51.570;7.090;2022-10-12T01:23:45;14.63;;;8.93;;
4547;SDS011;2286;51.570;7.090;2022-10-12T01:26:47;18.13;;;9.80;;
4547;SDS011;2286;51.570;7.090;2022-10-12T01:32:30;12.90;;;9.63;;
4547;SDS011;2286;51.570;7.090;2022-10-12T01:35:03;15.53;;;10.00;;
4547;SDS011;2286;51.570;7.090;2022-10-12T01:37:35;15.07;;;9.87;;
4547;SDS011;2286;51.570;7.090;2022-10-12T01:40:11;16.23;;;11.40;;
4547;SDS011;2286;51.570;7.090;2022-10-12T01:42:41;17.10;;;9.90;;
4547;SDS011;2286;51.570;7.090;2022-10-12T01:45:11;19.23;;;10.37;;
4547;SDS011;2286;51.570;7.090;2022-10-12T01:47:41;14.63;;;10.80;;
4547;SDS011;2286;51.570;7.090;2022-10-12T01:50:12;17.33;;;10.50;;
4547;SDS011;2286;51.570;7.090;2022-10-12T01:52:42;11.50;;;10.30;;
4547;SDS011;2286;51.570;7.090;2022-10-12T01:55:24;15.20;;;9.87;;
4547;SDS011;2286;51.570;7.090;2022-10-12T01:58:01;16.50;;;11.17;;
4547;SDS011;2286;51.570;7.090;2022-10-12T02:00:45;20.63;;;11.60;;
4547;SDS011;2286;51.570;7.090;2022-10-12T02:03:20;18.53;;;11.20;;
4547;SDS011;2286;51.570;7.090;2022-10-12T02:05:53;18.47;;;11.07;;
4547;SDS011;2286;51.570;7.090;2022-10-12T02:08:27;20.47;;;10.50;;
4547;SDS011;2286;51.570;7.090;2022-10-12T02:10:58;15.60;;;10.03;;
4547;SDS011;2286;51.570;7.090;2022-10-12T02:13:31;13.37;;;11.10;;
4547;SDS011;2286;51.570;7.090;2022-10-12T02:16:02;18.13;;;10.03;;
4547;SDS011;2286;51.570;7.090;2022-10-12T02:18:34;16.47;;;11.90;;
4547;SDS011;2286;51.570;7.090;2022-10-12T02:21:05;18.27;;;12.50;;
4547;SDS011;2286;51.570;7.090;2022-10-12T02:23:34;18.97;;;12.87;;
4547;SDS011;2286;51.570;7.090;2022-10-12T02:26:03;24.67;;;13.83;;
4547;SDS011;2286;51.570;7.090;2022-10-12T02:28:32;33.80;;;18.30;;
4547;SDS011;2286;51.570;7.090;2022-10-12T02:31:02;27.37;;;16.03;;
4547;SDS011;2286;51.570;7.090;2022-10-12T02:33:37;18.40;;;12.87;;
4547;SDS011;2286;51.570;7.090;2022-10-12T02:36:08;17.60;;;11.83;;
4547;SDS011;2286;51.570;7.090;2022-10-12T02:38:41;16.97;;;12.67;;
4547;SDS011;2286;51.570;7.090;2022-10-12T02:41:13;17.53;;;11.03;;
4547;SDS011;2286;51.570;7.090;2022-10-12T02:43:45;19.50;;;11.97;;
4547;SDS011;2286;51.570;7.090;2022-10-12T02:46:17;16.93;;;11.37;;
4547;SDS011;2286;51.570;7.090;2022-10-12T02:48:47;14.57;;;10.83;;
4547;SDS011;2286;51.570;7.090;2022-10-12T02:51:17;17.60;;;10.93;;
4547;SDS011;2286;51.570;7.090;2022-10-12T02:53:46;21.43;;;12.30;;
4547;SDS011;2286;51.570;7.090;2022-10-12T02:56:14;15.40;;;11.80;;
4547;SDS011;2286;51.570;7.090;2022-10-12T02:58:41;17.47;;;11.33;;
4547;SDS011;2286;51.570;7.090;2022-10-12T03:01:10;17.20;;;12.33;;
4547;SDS011;2286;51.570;7.090;2022-10-12T03:03:37;14.93;;;12.20;;
4547;SDS011;2286;51.570;7.090;2022-10-12T03:06:06;16.20;;;10.77;;
4547;SDS011;2286;51.570;7.090;2022-10-12T03:08:33;13.17;;;11.20;;
4547;SDS011;2286;51.570;7.090;2022-10-12T03:11:00;15.53;;;11.87;;
4547;SDS011;2286;51.570;7.090;2022-10-12T03:13:27;17.60;;;12.33;;
4547;SDS011;2286;51.570;7.090;2022-10-12T03:15:59;13.03;;;11.70;;
4547;SDS011;2286;51.570;7.090;2022-10-12T03:18:26;16.07;;;11.87;;
4547;SDS011;2286;51.570;7.090;2022-10-12T03:20:53;18.13;;;12.27;;
4547;SDS011;2286;51.570;7.090;2022-10-12T03:23:21;19.23;;;11.90;;
4547;SDS011;2286;51.570;7.090;2022-10-12T03:25:48;20.33;;;10.97;;
4547;SDS011;2286;51.570;7.090;2022-10-12T03:28:15;22.40;;;11.20;;
4547;SDS011;2286;51.570;7.090;2022-10-12T03:30:42;26.33;;;15.70;;
4547;SDS011;2286;51.570;7.090;2022-10-12T03:33:10;22.90;;;14.00;;
4547;SDS011;2286;51.570;7.090;2022-10-12T03:35:37;15.20;;;12.50;;
4547;SDS011;2286;51.570;7.090;2022-10-12T03:38:04;16.13;;;11.93;;
4547;SDS011;2286;51.570;7.090;2022-10-12T03:40:33;16.03;;;12.47;;
4547;SDS011;2286;51.570;7.090;2022-10-12T03:43:00;19.53;;;12.20;;
4547;SDS011;2286;51.570;7.090;2022-10-12T03:45:27;24.40;;;13.43;;
4547;SDS011;2286;51.570;7.090;2022-10-12T03:47:54;18.23;;;12.87;;
4547;SDS011;2286;51.570;7.090;2022-10-12T03:50:21;18.70;;;12.00;;
4547;SDS011;2286;51.570;7.090;2022-10-12T03:52:48;17.63;;;11.60;;
4547;SDS011;2286;51.570;7.090;2022-10-12T03:55:14;18.03;;;13.27;;
4547;SDS011;2286;51.570;7.090;2022-10-12T03:57:43;17.53;;;11.30;;
4547;SDS011;2286;51.570;7.090;2022-10-12T04:00:11;18.80;;;11.63;;
4547;SDS011;2286;51.570;7.090;2022-10-12T04:02:38;16.03;;;12.50;;
4547;SDS011;2286;51.570;7.090;2022-10-12T04:05:05;23.30;;;11.87;;
4547;SDS011;2286;51.570;7.090;2022-10-12T04:07:33;15.83;;;11.70;;
4547;SDS011;2286;51.570;7.090;2022-10-12T04:09:59;14.73;;;11.10;;
4547;SDS011;2286;51.570;7.090;2022-10-12T04:12:26;16.67;;;11.67;;
4547;SDS011;2286;51.570;7.090;2022-10-12T04:14:54;20.00;;;11.43;;
4547;SDS011;2286;51.570;7.090;2022-10-12T04:17:21;15.87;;;11.70;;
4547;SDS011;2286;51.570;7.090;2022-10-12T04:19:48;16.67;;;10.73;;
4547;SDS011;2286;51.570;7.090;2022-10-12T04:22:15;15.70;;;11.10;;
4547;SDS011;2286;51.570;7.090;2022-10-12T04:24:42;13.07;;;11.13;;
4547;SDS011;2286;51.570;7.090;2022-10-12T04:27:08;17.97;;;11.97;;
4547;SDS011;2286;51.570;7.090;2022-10-12T04:29:36;19.20;;;12.00;;
4547;SDS011;2286;51.570;7.090;2022-10-12T04:32:04;16.83;;;10.43;;
4547;SDS011;2286;51.570;7.090;2022-10-12T04:34:31;17.40;;;10.13;;
4547;SDS011;2286;51.570;7.090;2022-10-12T04:37:00;13.70;;;10.60;;
4547;SDS011;2286;51.570;7.090;2022-10-12T04:39:26;15.77;;;11.00;;
4547;SDS011;2286;51.570;7.090;2022-10-12T04:41:53;15.10;;;11.60;;
4547;SDS011;2286;51.570;7.090;2022-10-12T04:44:20;14.60;;;11.70;;
4547;SDS011;2286;51.570;7.090;2022-10-12T04:46:47;18.93;;;12.03;;
4547;SDS011;2286;51.570;7.090;2022-10-12T04:49:15;18.83;;;11.57;;
4547;SDS011;2286;51.570;7.090;2022-10-12T04:51:42;14.87;;;11.13;;
4547;SDS011;2286;51.570;7.090;2022-10-12T04:54:09;17.10;;;10.53;;
4547;SDS011;2286;51.570;7.090;2022-10-12T04:56:36;18.13;;;11.57;;
4547;SDS011;2286;51.570;7.090;2022-10-12T04:59:03;13.37;;;11.37;;
4547;SDS011;2286;51.570;7.090;2022-10-12T05:01:30;15.63;;;10.83;;
4547;SDS011;2286;51.570;7.090;2022-10-12T05:03:56;16.27;;;11.00;;
4547;SDS011;2286;51.570;7.090;2022-10-12T05:06:25;16.00;;;11.57;;
4547;SDS011;2286;51.570;7.090;2022-10-12T05:08:52;11.97;;;10.77;;
4547;SDS011;2286;51.570;7.090;2022-10-12T05:11:19;16.37;;;11.40;;
4547;SDS011;2286;51.570;7.090;2022-10-12T05:13:46;14.47;;;10.60;;
4547;SDS011;2286;51.570;7.090;2022-10-12T05:16:13;21.07;;;11.83;;
4547;SDS011;2286;51.570;7.090;2022-10-12T05:18:40;14.30;;;11.10;;
4547;SDS011;2286;51.570;7.090;2022-10-12T05:21:07;13.70;;;10.90;;
4547;SDS011;2286;51.570;7.090;2022-10-12T05:23:35;18.77;;;12.30;;
4547;SDS011;2286;51.570;7.090;2022-10-12T05:26:02;16.00;;;12.47;;
4547;SDS011;2286;51.570;7.090;2022-10-12T05:28:29;16.50;;;11.97;;
4547;SDS011;2286;51.570;7.090;2022-10-12T05:30:55;15.87;;;12.77;;
4547;SDS011;2286;51.570;7.090;2022-10-12T05:33:22;17.13;;;11.23;;
4547;SDS011;2286;51.570;7.090;2022-10-12T05:35:49;17.63;;;12.90;;
4547;SDS011;2286;51.570;7.090;2022-10-12T05:38:16;21.67;;;13.77;;
4547;SDS011;2286;51.570;7.090;2022-10-12T05:40:44;19.87;;;12.97;;
4547;SDS011;2286;51.570;7.090;2022-10-12T05:43:11;15.00;;;12.30;;
4547;SDS011;2286;51.570;7.090;2022-10-12T05:45:38;22.53;;;12.90;;
4547;SDS011;2286;51.570;7.090;2022-10-12T05:48:05;17.73;;;12.10;;
4547;SDS011;2286;51.570;7.090;2022-10-12T05:50:32;14.70;;;12.10;;
4547;SDS011;2286;51.570;7.090;2022-10-12T05:52:58;20.30;;;12.77;;
4547;SDS011;2286;51.570;7.090;2022-10-12T05:55:25;20.10;;;12.60;;
4547;SDS011;2286;51.570;7.090;2022-10-12T05:57:54;19.40;;;12.87;;
4547;SDS011;2286;51.570;7.090;2022-10-12T06:00:21;16.73;;;13.17;;
4547;SDS011;2286;51.570;7.090;2022-10-12T06:02:48;22.43;;;13.30;;
4547;SDS011;2286;51.570;7.090;2022-10-12T06:05:15;15.10;;;12.30;;
4547;SDS011;2286;51.570;7.090;2022-10-12T06:07:42;17.10;;;12.27;;
4547;SDS011;2286;51.570;7.090;2022-10-12T06:10:09;19.00;;;12.90;;
4547;SDS011;2286;51.570;7.090;2022-10-12T06:12:37;20.63;;;12.40;;
4547;SDS011;2286;51.570;7.090;2022-10-12T06:15:06;20.30;;;12.77;;
4547;SDS011;2286;51.570;7.090;2022-10-12T06:17:34;20.33;;;12.97;;
4547;SDS011;2286;51.570;7.090;2022-10-12T06:20:01;20.03;;;12.60;;
4547;SDS011;2286;51.570;7.090;2022-10-12T06:22:28;20.23;;;12.60;;
4547;SDS011;2286;51.570;7.090;2022-10-12T06:24:54;15.43;;;12.60;;
4547;SDS011;2286;51.570;7.090;2022-10-12T06:27:22;16.17;;;12.73;;
4547;SDS011;2286;51.570;7.090;2022-10-12T06:29:49;21.83;;;14.03;;
4547;SDS011;2286;51.570;7.090;2022-10-12T06:32:17;21.37;;;12.60;;
4547;SDS011;2286;51.570;7.090;2022-10-12T06:34:44;17.87;;;12.20;;
4547;SDS011;2286;51.570;7.090;2022-10-12T06:37:11;19.13;;;14.00;;
4547;SDS011;2286;51.570;7.090;2022-10-12T06:39:38;20.97;;;13.43;;
4547;SDS011;2286;51.570;7.090;2022-10-12T06:42:05;17.20;;;13.73;;
4547;SDS011;2286;51.570;7.090;2022-10-12T06:44:33;18.13;;;14.13;;
4547;SDS011;2286;51.570;7.090;2022-10-12T06:46:59;25.30;;;13.07;;
4547;SDS011;2286;51.570;7.090;2022-10-12T06:49:28;16.43;;;13.10;;
4547;SDS011;2286;51.570;7.090;2022-10-12T06:51:54;21.37;;;13.43;;
4547;SDS011;2286;51.570;7.090;2022-10-12T06:54:21;21.37;;;13.90;;
4547;SDS011;2286;51.570;7.090;2022-10-12T06:56:48;14.37;;;12.73;;
4547;SDS011;2286;51.570;7.090;2022-10-12T06:59:15;27.17;;;14.10;;
4547;SDS011;2286;51.570;7.090;2022-10-12T07:01:43;22.33;;;15.40;;
4547;SDS011;2286;51.570;7.090;2022-10-12T07:04:10;19.23;;;14.73;;
4547;SDS011;2286;51.570;7.090;2022-10-12T07:06:38;20.63;;;15.03;;
4547;SDS011;2286;51.570;7.090;2022-10-12T07:09:04;17.63;;;13.27;;
4547;SDS011;2286;51.570;7.090;2022-10-12T07:11:31;19.63;;;14.23;;
4547;SDS011;2286;51.570;7.090;2022-10-12T07:13:58;21.50;;;15.73;;
4547;SDS011;2286;51.570;7.090;2022-10-12T07:16:25;20.00;;;15.30;;
4547;SDS011;2286;51.570;7.090;2022-10-12T07:18:52;22.30;;;17.83;;
4547;SDS011;2286;51.570;7.090;2022-10-12T07:21:18;23.90;;;16.97;;
4547;SDS011;2286;51.570;7.090;2022-10-12T07:23:47;27.43;;;16.67;;
4547;SDS011;2286;51.570;7.090;2022-10-12T07:26:14;21.87;;;16.00;;
4547;SDS011;2286;51.570;7.090;2022-10-12T07:28:41;21.03;;;16.80;;
4547;SDS011;2286;51.570;7.090;2022-10-12T07:31:08;25.80;;;16.77;;
4547;SDS011;2286;51.570;7.090;2022-10-12T07:33:35;17.07;;;14.60;;
4547;SDS011;2286;51.570;7.090;2022-10-12T07:36:03;23.80;;;14.57;;
4547;SDS011;2286;51.570;7.090;2022-10-12T07:38:31;22.33;;;15.10;;
4547;SDS011;2286;51.570;7.090;2022-10-12T07:40:59;18.77;;;14.37;;
4547;SDS011;2286;51.570;7.090;2022-10-12T07:43:27;16.27;;;13.37;;
4547;SDS011;2286;51.570;7.090;2022-10-12T07:45:54;18.70;;;13.90;;
4547;SDS011;2286;51.570;7.090;2022-10-12T07:48:21;22.63;;;13.10;;
4547;SDS011;2286;51.570;7.090;2022-10-12T07:50:48;16.87;;;12.77;;
4547;SDS011;2286;51.570;7.090;2022-10-12T07:53:15;20.53;;;13.53;;
4547;SDS011;2286;51.570;7.090;2022-10-12T07:55:42;16.47;;;12.20;;
4547;SDS011;2286;51.570;7.090;2022-10-12T07:58:10;15.70;;;12.43;;
4547;SDS011;2286;51.570;7.090;2022-10-12T08:00:37;18.73;;;12.20;;
4547;SDS011;2286;51.570;7.090;2022-10-12T08:03:04;17.07;;;11.70;;
4547;SDS011;2286;51.570;7.090;2022-10-12T08:05:31;15.73;;;10.17;;
4547;SDS011;2286;51.570;7.090;2022-10-12T08:07:59;17.23;;;10.70;;
4547;SDS011;2286;51.570;7.090;2022-10-12T08:10:26;16.13;;;10.60;;
4547;SDS011;2286;51.570;7.090;2022-10-12T08:12:53;13.80;;;10.77;;
4547;SDS011;2286;51.570;7.090;2022-10-12T08:15:21;15.60;;;10.83;;
4547;SDS011;2286;51.570;7.090;2022-10-12T08:17:48;15.97;;;11.20;;
4547;SDS011;2286;51.570;7.090;2022-10-12T08:20:15;13.17;;;9.77;;
4547;SDS011;2286;51.570;7.090;2022-10-12T08:22:42;20.83;;;12.60;;
4547;SDS011;2286;51.570;7.090;2022-10-12T08:25:09;16.83;;;10.37;;
4547;SDS011;2286;51.570;7.090;2022-10-12T08:27:36;14.63;;;13.00;;
4547;SDS011;2286;51.570;7.090;2022-10-12T08:30:03;37.07;;;30.20;;
4547;SDS011;2286;51.570;7.090;2022-10-12T08:32:32;20.87;;;13.20;;
4547;SDS011;2286;51.570;7.090;2022-10-12T08:34:59;17.20;;;13.93;;
4547;SDS011;2286;51.570;7.090;2022-10-12T08:37:26;13.23;;;10.03;;
4547;SDS011;2286;51.570;7.090;2022-10-12T08:39:54;17.30;;;10.10;;
4547;SDS011;2286;51.570;7.090;2022-10-12T08:42:29;13.70;;;7.47;;
4547;SDS011;2286;51.570;7.090;2022-10-12T08:45:11;9.93;;;6.37;;
4547;SDS011;2286;51.570;7.090;2022-10-12T08:48:04;8.40;;;5.63;;
4547;SDS011;2286;51.570;7.090;2022-10-12T08:50:37;12.97;;;6.27;;
4547;SDS011;2286;51.570;7.090;2022-10-12T08:53:09;7.77;;;6.57;;
4547;SDS011;2286;51.570;7.090;2022-10-12T08:55:41;13.10;;;7.70;;
4547;SDS011;2286;51.570;7.090;2022-10-12T08:58:12;5.97;;;5.37;;
4547;SDS011;2286;51.570;7.090;2022-10-12T09:00:41;7.60;;;5.20;;
4547;SDS011;2286;51.570;7.090;2022-10-12T09:03:15;7.77;;;6.03;;
4547;SDS011;2286;51.570;7.090;2022-10-12T09:05:51;14.70;;;6.80;;
4547;SDS011;2286;51.570;7.090;2022-10-12T09:08:26;15.13;;;5.17;;
4547;SDS011;2286;51.570;7.090;2022-10-12T09:11:04;11.30;;;4.00;;
4547;SDS011;2286;51.570;7.090;2022-10-12T09:13:43;8.83;;;4.00;;
4547;SDS011;2286;51.570;7.090;2022-10-12T09:16:18;12.63;;;4.67;;
4547;SDS011;2286;51.570;7.090;2022-10-12T09:18:50;8.47;;;3.60;;
4547;SDS011;2286;51.570;7.090;2022-10-12T09:21:21;6.50;;;4.00;;
4547;SDS011;2286;51.570;7.090;2022-10-12T09:23:51;9.37;;;3.20;;
4547;SDS011;2286;51.570;7.090;2022-10-12T09:26:24;5.77;;;3.57;;
4547;SDS011;2286;51.570;7.090;2022-10-12T09:28:58;8.43;;;4.00;;
4547;SDS011;2286;51.570;7.090;2022-10-12T09:31:28;16.93;;;4.33;;
4547;SDS011;2286;51.570;7.090;2022-10-12T09:34:03;12.73;;;3.73;;
4547;SDS011;2286;51.570;7.090;2022-10-12T09:36:32;8.07;;;3.77;;
4547;SDS011;2286;51.570;7.090;2022-10-12T09:39:01;11.10;;;3.70;;
4547;SDS011;2286;51.570;7.090;2022-10-12T09:41:32;8.03;;;3.70;;
4547;SDS011;2286;51.570;7.090;2022-10-12T09:44:01;9.43;;;5.90;;
4547;SDS011;2286;51.570;7.090;2022-10-12T09:46:33;9.40;;;4.43;;
4547;SDS011;2286;51.570;7.090;2022-10-12T09:49:06;5.37;;;3.63;;
4547;SDS011;2286;51.570;7.090;2022-10-12T09:51:33;5.90;;;3.70;;
4547;SDS011;2286;51.570;7.090;2022-10-12T09:54:01;5.40;;;3.40;;
4547;SDS011;2286;51.570;7.090;2022-10-12T09:56:34;7.93;;;3.30;;
4547;SDS011;2286;51.570;7.090;2022-10-12T09:59:05;8.27;;;4.03;;
4547;SDS011;2286;51.570;7.090;2022-10-12T10:01:42;8.03;;;3.80;;
4547;SDS011;2286;51.570;7.090;2022-10-12T10:04:24;5.20;;;3.40;;
4547;SDS011;2286;51.570;7.090;2022-10-12T10:06:53;9.03;;;4.30;;
4547;SDS011;2286;51.570;7.090;2022-10-12T10:09:25;10.27;;;4.40;;
4547;SDS011;2286;51.570;7.090;2022-10-12T10:11:54;7.60;;;3.90;;
4547;SDS011;2286;51.570;7.090;2022-10-12T10:14:22;13.77;;;4.00;;
4547;SDS011;2286;51.570;7.090;2022-10-12T10:16:49;13.20;;;4.47;;
4547;SDS011;2286;51.570;7.090;2022-10-12T10:19:19;4.93;;;4.00;;
4547;SDS011;2286;51.570;7.090;2022-10-12T10:21:51;6.00;;;3.80;;
4547;SDS011;2286;51.570;7.090;2022-10-12T10:24:22;7.67;;;4.20;;
4547;SDS011;2286;51.570;7.090;2022-10-12T10:26:53;5.53;;;3.77;;
4547;SDS011;2286;51.570;7.090;2022-10-12T10:32:16;6.40;;;3.20;;
4547;SDS011;2286;51.570;7.090;2022-10-12T10:35:01;11.00;;;5.20;;
4547;SDS011;2286;51.570;7.090;2022-10-12T10:37:30;6.00;;;3.50;;
4547;SDS011;2286;51.570;7.090;2022-10-12T10:39:58;8.30;;;4.50;;
4547;SDS011;2286;51.570;7.090;2022-10-12T10:42:26;6.30;;;3.60;;
4547;SDS011;2286;51.570;7.090;2022-10-12T10:44:56;6.97;;;3.40;;
4547;SDS011;2286;51.570;7.090;2022-10-12T10:47:24;9.70;;;4.10;;
4547;SDS011;2286;51.570;7.090;2022-10-12T10:49:53;8.30;;;4.40;;
4547;SDS011;2286;51.570;7.090;2022-10-12T10:52:23;6.33;;;3.63;;
4547;SDS011;2286;51.570;7.090;2022-10-12T10:55:13;5.70;;;3.77;;
4547;SDS011;2286;51.570;7.090;2022-10-12T10:57:43;9.33;;;4.43;;
4547;SDS011;2286;51.570;7.090;2022-10-12T11:00:17;7.10;;;3.20;;
4547;SDS011;2286;51.570;7.090;2022-10-12T11:02:46;3.97;;;2.50;;
4547;SDS011;2286;51.570;7.090;2022-10-12T11:05:18;7.17;;;3.30;;
4547;SDS011;2286;51.570;7.090;2022-10-12T11:07:49;8.00;;;3.63;;
4547;SDS011;2286;51.570;7.090;2022-10-12T11:10:23;15.57;;;4.67;;
4547;SDS011;2286;51.570;7.090;2022-10-12T11:12:55;5.27;;;3.00;;
4547;SDS011;2286;51.570;7.090;2022-10-12T11:15:29;4.80;;;3.00;;
4547;SDS011;2286;51.570;7.090;2022-10-12T11:18:02;6.60;;;3.00;;
4547;SDS011;2286;51.570;7.090;2022-10-12T11:20:43;4.03;;;2.80;;
4547;SDS011;2286;51.570;7.090;2022-10-12T11:23:15;4.77;;;2.40;;
4547;SDS011;2286;51.570;7.090;2022-10-12T11:25:55;7.17;;;2.63;;
4547;SDS011;2286;51.570;7.090;2022-10-12T11:28:34;4.40;;;2.57;;
4547;SDS011;2286;51.570;7.090;2022-10-12T11:31:03;7.40;;;2.77;;
4547;SDS011;2286;51.570;7.090;2022-10-12T11:33:32;6.10;;;2.63;;
4547;SDS011;2286;51.570;7.090;2022-10-12T11:36:02;5.63;;;2.50;;
4547;SDS011;2286;51.570;7.090;2022-10-12T11:38:34;4.93;;;2.60;;
4547;SDS011;2286;51.570;7.090;2022-10-12T11:41:08;7.00;;;2.70;;
4547;SDS011;2286;51.570;7.090;2022-10-12T11:43:39;5.10;;;2.53;;
4547;SDS011;2286;51.570;7.090;2022-10-12T11:46:11;7.50;;;2.77;;
4547;SDS011;2286;51.570;7.090;2022-10-12T11:48:43;3.77;;;2.10;;
4547;SDS011;2286;51.570;7.090;2022-10-12T11:51:13;3.60;;;2.67;;
4547;SDS011;2286;51.570;7.090;2022-10-12T11:53:42;4.23;;;2.53;;
4547;SDS011;2286;51.570;7.090;2022-10-12T11:56:19;4.77;;;2.43;;
4547;SDS011;2286;51.570;7.090;2022-10-12T11:58:51;6.77;;;2.80;;
4547;SDS011;2286;51.570;7.090;2022-10-12T12:01:27;9.57;;;2.50;;
4547;SDS011;2286;51.570;7.090;2022-10-12T12:04:12;6.10;;;3.40;;
4547;SDS011;2286;51.570;7.090;2022-10-12T12:06:53;5.87;;;2.30;;
4547;SDS011;2286;51.570;7.090;2022-10-12T12:09:32;5.13;;;2.43;;
4547;SDS011;2286;51.570;7.090;2022-10-12T12:17:31;5.50;;;2.13;;
4547;SDS011;2286;51.570;7.090;2022-10-12T12:19:59;6.23;;;2.50;;
4547;SDS011;2286;51.570;7.090;2022-10-12T12:22:31;8.37;;;2.50;;
4547;SDS011;2286;51.570;7.090;2022-10-12T12:25:18;5.07;;;2.43;;
4547;SDS011;2286;51.570;7.090;2022-10-12T12:27:52;5.20;;;2.40;;
4547;SDS011;2286;51.570;7.090;2022-10-12T12:30:36;3.10;;;2.00;;
4547;SDS011;2286;51.570;7.090;2022-10-12T12:35:53;7.20;;;2.70;;
4547;SDS011;2286;51.570;7.090;2022-10-12T12:38:22;5.40;;;2.80;;
4547;SDS011;2286;51.570;7.090;2022-10-12T12:40:59;4.03;;;2.10;;
4547;SDS011;2286;51.570;7.090;2022-10-12T12:46:24;7.03;;;2.50;;
4547;SDS011;2286;51.570;7.090;2022-10-12T12:49:24;4.77;;;2.10;;
4547;SDS011;2286;51.570;7.090;2022-10-12T12:51:53;3.47;;;2.10;;
4547;SDS011;2286;51.570;7.090;2022-10-12T12:54:22;7.60;;;2.20;;
4547;SDS011;2286;51.570;7.090;2022-10-12T12:56:50;8.17;;;2.37;;
4547;SDS011;2286;51.570;7.090;2022-10-12T12:59:37;5.67;;;2.23;;
4547;SDS011;2286;51.570;7.090;2022-10-12T13:02:31;3.67;;;1.53;;
4547;SDS011;2286;51.570;7.090;2022-10-12T13:05:31;6.53;;;2.20;;
4547;SDS011;2286;51.570;7.090;2022-10-12T13:08:24;5.93;;;2.37;;
4547;SDS011;2286;51.570;7.090;2022-10-12T13:11:03;2.90;;;2.03;;
4547;SDS011;2286;51.570;7.090;2022-10-12T13:13:54;6.63;;;2.33;;
4547;SDS011;2286;51.570;7.090;2022-10-12T13:19:25;4.83;;;2.10;;
4547;SDS011;2286;51.570;7.090;2022-10-12T13:21:54;5.90;;;2.43;;
4547;SDS011;2286;51.570;7.090;2022-10-12T13:24:22;5.27;;;2.23;;
4547;SDS011;2286;51.570;7.090;2022-10-12T13:26:51;6.13;;;1.87;;
4547;SDS011;2286;51.570;7.090;2022-10-12T13:29:32;3.47;;;2.00;;
4547;SDS011;2286;51.570;7.090;2022-10-12T13:32:07;3.30;;;1.97;;
4547;SDS011;2286;51.570;7.090;2022-10-12T13:34:44;3.70;;;2.87;;
4547;SDS011;2286;51.570;7.090;2022-10-12T13:37:14;7.57;;;2.20;;
4547;SDS011;2286;51.570;7.090;2022-10-12T13:39:43;4.87;;;2.40;;
4547;SDS011;2286;51.570;7.090;2022-10-12T13:42:13;6.03;;;2.70;;
4547;SDS011;2286;51.570;7.090;2022-10-12T13:44:43;3.70;;;2.33;;
4547;SDS011;2286;51.570;7.090;2022-10-12T13:47:23;4.43;;;2.60;;
4547;SDS011;2286;51.570;7.090;2022-10-12T13:49:51;8.77;;;3.07;;
4547;SDS011;2286;51.570;7.090;2022-10-12T13:52:19;6.97;;;2.60;;
4547;SDS011;2286;51.570;7.090;2022-10-12T13:54:49;7.53;;;2.10;;
4547;SDS011;2286;51.570;7.090;2022-10-12T13:57:18;6.67;;;3.07;;
4547;SDS011;2286;51.570;7.090;2022-10-12T13:59:48;6.63;;;2.77;;
4547;SDS011;2286;51.570;7.090;2022-10-12T14:02:23;4.73;;;2.60;;
4547;SDS011;2286;51.570;7.090;2022-10-12T14:04:53;10.90;;;2.57;;
4547;SDS011;2286;51.570;7.090;2022-10-12T14:07:21;4.90;;;2.30;;
4547;SDS011;2286;51.570;7.090;2022-10-12T14:09:52;4.23;;;2.90;;
4547;SDS011;2286;51.570;7.090;2022-10-12T14:12:22;6.70;;;2.67;;
4547;SDS011;2286;51.570;7.090;2022-10-12T14:14:52;4.47;;;2.47;;
4547;SDS011;2286;51.570;7.090;2022-10-12T14:17:19;5.93;;;2.80;;
4547;SDS011;2286;51.570;7.090;2022-10-12T14:19:48;3.20;;;2.50;;
4547;SDS011;2286;51.570;7.090;2022-10-12T14:22:21;7.20;;;2.90;;
4547;SDS011;2286;51.570;7.090;2022-10-12T14:24:52;4.03;;;2.40;;
4547;SDS011;2286;51.570;7.090;2022-10-12T14:27:33;8.30;;;3.10;;
4547;SDS011;2286;51.570;7.090;2022-10-12T14:30:04;5.77;;;2.60;;
4547;SDS011;2286;51.570;7.090;2022-10-12T14:32:41;5.53;;;2.97;;
4547;SDS011;2286;51.570;7.090;2022-10-12T14:35:18;4.63;;;2.90;;
4547;SDS011;2286;51.570;7.090;2022-10-12T14:37:48;6.43;;;3.00;;
4547;SDS011;2286;51.570;7.090;2022-10-12T14:40:30;5.37;;;2.57;;
4547;SDS011;2286;51.570;7.090;2022-10-12T14:43:03;6.97;;;3.70;;
4547;SDS011;2286;51.570;7.090;2022-10-12T14:45:33;6.00;;;3.20;;
4547;SDS011;2286;51.570;7.090;2022-10-12T14:48:01;5.67;;;2.50;;
4547;SDS011;2286;51.570;7.090;2022-10-12T14:50:31;6.17;;;2.97;;
4547;SDS011;2286;51.570;7.090;2022-10-12T14:52:59;7.33;;;2.97;;
4547;SDS011;2286;51.570;7.090;2022-10-12T14:55:28;9.07;;;3.20;;
4547;SDS011;2286;51.570;7.090;2022-10-12T14:57:57;5.03;;;2.70;;
4547;SDS011;2286;51.570;7.090;2022-10-12T15:00:25;5.60;;;2.53;;
4547;SDS011;2286;51.570;7.090;2022-10-12T15:02:53;3.80;;;3.00;;
4547;SDS011;2286;51.570;7.090;2022-10-12T15:05:20;2.90;;;2.47;;
4547;SDS011;2286;51.570;7.090;2022-10-12T15:07:50;6.03;;;3.33;;
4547;SDS011;2286;51.570;7.090;2022-10-12T15:10:18;7.97;;;3.00;;
4547;SDS011;2286;51.570;7.090;2022-10-12T15:12:46;4.30;;;2.73;;
4547;SDS011;2286;51.570;7.090;2022-10-12T15:17:57;4.73;;;3.17;;
4547;SDS011;2286;51.570;7.090;2022-10-12T15:20:24;4.87;;;3.03;;
4547;SDS011;2286;51.570;7.090;2022-10-12T15:22:54;3.90;;;2.83;;
4547;SDS011;2286;51.570;7.090;2022-10-12T15:25:22;6.27;;;3.20;;
4547;SDS011;2286;51.570;7.090;2022-10-12T15:27:52;6.73;;;3.17;;
4547;SDS011;2286;51.570;7.090;2022-10-12T15:30:19;5.27;;;3.50;;
4547;SDS011;2286;51.570;7.090;2022-10-12T15:32:46;4.83;;;3.37;;
4547;SDS011;2286;51.570;7.090;2022-10-12T15:35:14;5.23;;;3.73;;
4547;SDS011;2286;51.570;7.090;2022-10-12T15:37:43;4.27;;;3.80;;
4547;SDS011;2286;51.570;7.090;2022-10-12T15:40:12;5.27;;;3.67;;
4547;SDS011;2286;51.570;7.090;2022-10-12T15:42:38;6.33;;;4.10;;